Time;durP1;ratioP1;P1;durP2;ratioP2;P2;SDS_P1;SDS_P2;PMS_P1;PMS_P2;Temp;Humidity;BMP_temperature;BMP_pressure;BME280_temperature;BME280_humidity;BME280_pressure;Samples;Min_cycle;Max_cycle;Signal;HPM_P1;HPM_P2
2023/03/03 00:02:26;;;;;;;;;;;;;;;0.19;70.43;101167.50;4955621;29;19925;-67
2023/03/03 00:05:30;;;;;;;;;;;;;;;0.16;70.23;101167.50;4955595;29;20017;-67
2023/03/03 00:08:33;;;;;;;;;;;;;;;0.05;69.93;101166.59;4955597;29;20021;-67
2023/03/03 00:11:37;;;;;;;;;;;;;;;0.09;69.96;101165.75;4955475;29;19965;-67
2023/03/03 00:14:40;;;;;;;;;;;;;;;0.05;70.78;101173.47;4955466;29;20296;-67
2023/03/03 00:17:44;;;;;;;;;;;;;;;0.09;70.92;101173.47;4955348;29;19929;-67
2023/03/03 00:20:48;;;;;;;;;;;;;;;0.11;70.42;101179.47;4955374;29;20018;-67
2023/03/03 00:23:52;;;;;;;;;;;;;;;0.04;70.70;101174.34;4955063;29;19990;-67
2023/03/03 00:26:59;;;;;;;;;;;;;;;0.03;70.72;101180.31;4955091;29;19926;-67
2023/03/03 00:30:05;;;;;;;;;;;;;;;0.02;70.33;101182.03;4955286;29;19924;-67
2023/03/03 00:33:19;;;;;;;;;;;;;;;-0.03;70.50;101179.47;4955096;29;19969;-67
2023/03/03 00:36:31;;;;;;;;;;;;;;;-0.06;71.12;101181.19;4943175;28;19972;-67
2023/03/03 00:39:35;;;;;;;;;;;;;;;-0.11;71.36;101183.72;4954993;29;20391;-67
2023/03/03 00:42:39;;;;;;;;;;;;;;;-0.16;71.51;101177.72;4955047;29;20082;-67
2023/03/03 00:45:44;;;;;;;;;;;;;;;-0.10;70.77;101182.00;4955360;28;19929;-67
2023/03/03 00:48:49;;;;;;;;;;;;;;;-0.04;70.90;101182.03;4971112;28;19960;-67
2023/03/03 00:51:53;;;;;;;;;;;;;;;-0.07;70.93;101187.16;4962118;28;20281;-67
2023/03/03 00:54:56;;;;;;;;;;;;;;;-0.09;71.22;101191.44;4961914;28;20433;-67
2023/03/03 00:57:59;;;;;;;;;;;;;;;-0.13;71.44;101184.56;4961934;28;19985;-67
2023/03/03 01:01:07;;;;;;;;;;;;;;;-0.10;71.12;101190.56;4962208;28;19925;-67
2023/03/03 01:04:18;;;;;;;;;;;;;;;-0.12;71.11;101184.59;4961972;28;20299;-67
2023/03/03 01:07:21;;;;;;;;;;;;;;;-0.08;71.17;101182.88;4973983;28;19925;-67
2023/03/03 01:10:27;;;;;;;;;;;;;;;-0.11;71.37;101177.72;4973909;28;19973;-67
2023/03/03 01:13:31;;;;;;;;;;;;;;;-0.19;71.25;101184.56;4973787;28;19936;-67
2023/03/03 01:16:34;;;;;;;;;;;;;;;-0.29;71.60;101183.66;4961682;28;19973;-67
2023/03/03 01:19:38;;;;;;;;;;;;;;;-0.25;71.97;101178.56;4961735;28;20001;-67
2023/03/03 01:22:41;;;;;;;;;;;;;;;-0.28;71.63;101181.13;4973763;28;19925;-67
2023/03/03 01:25:46;;;;;;;;;;;;;;;-0.47;72.50;101184.50;4962125;28;19929;-67
2023/03/03 01:28:50;;;;;;;;;;;;;;;-0.37;72.17;101175.09;4961849;28;20417;-67
2023/03/03 01:31:53;;;;;;;;;;;;;;;-0.41;72.37;101184.50;4961585;28;19926;-67
2023/03/03 01:34:56;;;;;;;;;;;;;;;-0.45;72.33;101180.19;4973935;28;19946;-67
2023/03/03 01:37:59;;;;;;;;;;;;;;;-0.43;72.51;101180.22;4973975;28;19925;-67
2023/03/03 01:41:02;;;;;;;;;;;;;;;-0.42;72.87;101175.06;4961626;28;19945;-67
2023/03/03 01:44:05;;;;;;;;;;;;;;;-0.47;72.33;101171.66;4961686;28;19969;-67
2023/03/03 01:47:12;;;;;;;;;;;;;;;-0.43;71.92;101175.94;4973568;28;19981;-67
2023/03/03 01:50:19;;;;;;;;;;;;;;;-0.51;72.36;101168.22;4977435;28;19929;-67
2023/03/03 01:53:27;;;;;;;;;;;;;;;-0.54;72.79;101173.34;4976342;28;20310;-67
2023/03/03 01:56:30;;;;;;;;;;;;;;;-0.54;73.03;101167.34;4977400;28;20495;-67
2023/03/03 01:59:34;;;;;;;;;;;;;;;-0.48;72.82;101170.78;4960292;28;19940;-67
2023/03/03 02:02:38;;;;;;;;;;;;;;;-0.56;72.71;101171.59;4965097;28;20034;-67
2023/03/03 02:05:42;;;;;;;;;;;;;;;-0.54;73.01;101175.06;4977084;28;20350;-67
2023/03/03 02:08:45;;;;;;;;;;;;;;;-0.53;73.22;101177.59;4977224;28;19966;-67
2023/03/03 02:11:49;;;;;;;;;;;;;;;-0.58;73.16;101176.72;4977029;28;20086;-67
2023/03/03 02:14:53;;;;;;;;;;;;;;;-0.64;72.37;101170.72;4976695;28;19973;-67
2023/03/03 02:17:57;;;;;;;;;;;;;;;-0.65;72.94;101172.41;4965113;28;19925;-67
2023/03/03 02:21:11;;;;;;;;;;;;;;;-0.68;72.96;101166.41;4964875;28;19925;-67
2023/03/03 02:24:23;;;;;;;;;;;;;;;-0.71;73.69;101170.69;4964672;28;19945;-67
2023/03/03 02:27:28;;;;;;;;;;;;;;;-0.69;73.71;101167.28;4953638;28;19925;-67
2023/03/03 02:30:35;;;;;;;;;;;;;;;-0.65;73.79;101179.28;4964295;28;19929;-67
2023/03/03 02:33:39;;;;;;;;;;;;;;;-0.71;73.42;101183.53;4964410;28;20397;-67
2023/03/03 02:36:43;;;;;;;;;;;;;;;-0.76;73.70;101187.78;4976475;28;20009;-67
2023/03/03 02:39:46;;;;;;;;;;;;;;;-0.73;73.75;101192.94;4973271;28;19937;-67
2023/03/03 02:42:51;;;;;;;;;;;;;;;-0.78;73.85;101194.63;4964470;28;20009;-67
2023/03/03 02:45:54;;;;;;;;;;;;;;;-0.86;73.78;101191.19;4950045;29;19929;-67
2023/03/03 02:48:57;;;;;;;;;;;;;;;-0.83;73.69;101191.19;4956978;28;19941;-67
2023/03/03 02:52:01;;;;;;;;;;;;;;;-0.83;74.42;101183.50;4944908;29;19957;-67
2023/03/03 02:55:05;;;;;;;;;;;;;;;-0.82;74.37;101181.78;4955872;29;19950;-67
2023/03/03 02:58:09;;;;;;;;;;;;;;;-0.85;74.15;101182.59;4945195;29;19972;-67
2023/03/03 03:01:12;;;;;;;;;;;;;;;-0.86;73.97;101185.16;4944706;29;19972;-67
2023/03/03 03:04:17;;;;;;;;;;;;;;;-0.85;74.04;101192.03;4944906;29;20310;-67
2023/03/03 03:07:22;;;;;;;;;;;;;;;-0.89;74.38;101190.28;4944973;29;19973;-67
2023/03/03 03:10:26;;;;;;;;;;;;;;;-0.91;74.49;101185.16;4944774;28;19946;-67
2023/03/03 03:13:30;;;;;;;;;;;;;;;-0.90;74.42;101189.41;4944494;29;20070;-66
2023/03/03 03:16:34;;;;;;;;;;;;;;;-0.86;73.61;101190.28;4944802;28;19966;-67
2023/03/03 03:19:37;;;;;;;;;;;;;;;-0.93;74.08;101189.41;4944525;29;19926;-67
2023/03/03 03:22:40;;;;;;;;;;;;;;;-0.98;74.50;101186.81;4929586;29;19941;-67
2023/03/03 03:25:45;;;;;;;;;;;;;;;-0.94;74.65;101193.69;4944303;29;20457;-67
2023/03/03 03:28:54;;;;;;;;;;;;;;;-0.92;74.30;101200.56;4956271;28;19974;-67
2023/03/03 03:31:58;;;;;;;;;;;;;;;-0.95;74.43;101204.81;4944483;29;19957;-67
2023/03/03 03:35:02;;;;;;;;;;;;;;;-1.03;74.84;101203.03;4944171;29;19926;-67
2023/03/03 03:38:06;;;;;;;;;;;;;;;-1.00;74.61;101208.19;4944530;28;20062;-67
2023/03/03 03:41:09;;;;;;;;;;;;;;;-1.04;74.21;101215.03;4944218;28;19969;-67
2023/03/03 03:44:13;;;;;;;;;;;;;;;-1.03;74.45;101209.03;4956696;28;19926;-67
2023/03/03 03:47:16;;;;;;;;;;;;;;;-1.05;74.83;101215.88;4975148;28;19973;-67
2023/03/03 03:50:19;;;;;;;;;;;;;;;-1.09;74.26;101219.25;4963070;28;20298;-67
2023/03/03 03:53:23;;;;;;;;;;;;;;;-1.07;74.05;101215.00;4962852;28;19929;-67
2023/03/03 03:56:26;;;;;;;;;;;;;;;-1.08;74.34;101207.31;4963238;28;20242;-67
2023/03/03 03:59:32;;;;;;;;;;;;;;;-1.14;75.03;101214.97;4952252;28;20004;-67
2023/03/03 04:02:35;;;;;;;;;;;;;;;-1.12;74.90;101215.81;4962794;28;19926;-67
2023/03/03 04:05:39;;;;;;;;;;;;;;;-1.14;74.96;101209.81;4975079;28;19973;-67
2023/03/03 04:08:42;;;;;;;;;;;;;;;-1.20;75.24;101210.63;4962729;28;19925;-67
2023/03/03 04:11:46;;;;;;;;;;;;;;;-1.23;74.91;101211.47;4962333;28;19925;-67
2023/03/03 04:14:51;;;;;;;;;;;;;;;-1.26;75.15;101213.16;4962554;28;19928;-67
2023/03/03 04:17:54;;;;;;;;;;;;;;;-1.23;75.28;101221.72;4974568;28;20009;-67
2023/03/03 04:20:58;;;;;;;;;;;;;;;-1.27;75.64;101217.44;4962617;28;19982;-67
2023/03/03 04:24:03;;;;;;;;;;;;;;;-1.33;75.56;101214.81;4962804;28;20064;-67
2023/03/03 04:27:08;;;;;;;;;;;;;;;-1.38;75.46;101228.44;4973766;28;20363;-67
2023/03/03 04:30:13;;;;;;;;;;;;;;;-1.40;75.85;101225.88;4951402;28;20425;-67
2023/03/03 04:33:16;;;;;;;;;;;;;;;-1.39;75.64;101225.03;4955165;28;20417;-67
2023/03/03 04:36:20;;;;;;;;;;;;;;;-1.47;76.30;101224.97;4962319;28;19974;-67
2023/03/03 04:39:26;;;;;;;;;;;;;;;-1.44;76.71;101217.28;4962170;28;19925;-67
2023/03/03 04:42:30;;;;;;;;;;;;;;;-1.44;76.13;101219.00;4962422;28;20053;-67
2023/03/03 04:45:33;;;;;;;;;;;;;;;-1.43;75.59;101216.47;4956998;28;20330;-67
2023/03/03 04:48:37;;;;;;;;;;;;;;;-1.50;75.87;101207.00;4962140;28;19925;-67
2023/03/03 04:51:41;;;;;;;;;;;;;;;-1.57;76.42;101206.91;4962168;28;20023;-67
2023/03/03 04:54:44;;;;;;;;;;;;;;;-1.57;76.47;101204.34;4962337;28;20425;-67
2023/03/03 04:57:47;;;;;;;;;;;;;;;-1.59;76.71;101222.31;4962236;28;19972;-67
2023/03/03 05:00:55;;;;;;;;;;;;;;;-1.51;76.69;101227.50;4961839;28;19925;-67
2023/03/03 05:03:58;;;;;;;;;;;;;;;-1.44;76.53;101235.25;4973559;28;20413;-67
2023/03/03 05:07:02;;;;;;;;;;;;;;;-1.55;76.02;101230.88;4973025;28;19924;-67
2023/03/03 05:10:05;;;;;;;;;;;;;;;-1.53;76.09;101237.75;4974109;28;19941;-67
2023/03/03 05:13:09;;;;;;;;;;;;;;;-1.62;75.95;101237.66;4973441;28;19964;-67
2023/03/03 05:16:12;;;;;;;;;;;;;;;-1.69;76.68;101234.19;4973546;28;19960;-67
2023/03/03 05:19:15;;;;;;;;;;;;;;;-1.72;77.26;101236.72;4973602;28;19925;-67
2023/03/03 05:22:18;;;;;;;;;;;;;;;-1.62;76.63;101242.81;4973818;28;20286;-67
2023/03/03 05:25:21;;;;;;;;;;;;;;;-1.57;76.12;101242.81;4977776;28;19924;-67
2023/03/03 05:28:24;;;;;;;;;;;;;;;-1.58;75.73;101248.81;4977936;28;19934;-67
2023/03/03 05:31:28;;;;;;;;;;;;;;;-1.63;75.87;101241.06;4977616;28;20342;-67
2023/03/03 05:34:30;;;;;;;;;;;;;;;-1.65;76.23;101243.63;4977947;28;19929;-67
2023/03/03 05:37:33;;;;;;;;;;;;;;;-1.69;76.41;101238.44;4977596;28;19972;-67
2023/03/03 05:40:38;;;;;;;;;;;;;;;-1.69;76.33;101226.50;4977520;28;19925;-67
2023/03/03 05:43:41;;;;;;;;;;;;;;;-1.73;76.32;101234.13;4977674;28;19965;-67
2023/03/03 05:46:44;;;;;;;;;;;;;;;-1.73;76.23;101229.84;4977481;28;19930;-67
2023/03/03 05:49:47;;;;;;;;;;;;;;;-1.73;76.04;101232.41;4965153;28;20013;-67
2023/03/03 05:52:54;;;;;;;;;;;;;;;-1.73;76.08;101250.38;4977417;28;20351;-67
2023/03/03 05:55:58;;;;;;;;;;;;;;;-1.72;75.58;101241.84;4977352;28;19924;-67
2023/03/03 05:59:08;;;;;;;;;;;;;;;-1.85;76.16;101249.38;4977117;28;20000;-67
2023/03/03 06:02:11;;;;;;;;;;;;;;;-1.85;76.51;101260.53;4977529;28;19986;-67
2023/03/03 06:05:15;;;;;;;;;;;;;;;-1.84;76.15;101262.25;4977163;28;19925;-67
2023/03/03 06:08:18;;;;;;;;;;;;;;;-1.80;75.38;101265.69;4976840;28;19925;-67
2023/03/03 06:11:23;;;;;;;;;;;;;;;-1.86;76.08;101271.59;4976866;28;19965;-67
2023/03/03 06:14:27;;;;;;;;;;;;;;;-1.82;76.72;101280.19;4976866;28;19929;-67
2023/03/03 06:17:31;;;;;;;;;;;;;;;-1.83;76.78;101279.31;4976861;28;19924;-67
2023/03/03 06:20:34;;;;;;;;;;;;;;;-1.79;76.30;101287.91;4976771;28;20363;-67
2023/03/03 06:23:37;;;;;;;;;;;;;;;-1.76;76.13;101300.75;4976847;28;19925;-67
2023/03/03 06:26:41;;;;;;;;;;;;;;;-1.81;75.88;101302.44;4976955;28;19944;-67
2023/03/03 06:29:44;;;;;;;;;;;;;;;-1.89;76.39;101302.31;4976476;28;19973;-67
2023/03/03 06:32:48;;;;;;;;;;;;;;;-1.95;76.55;101300.56;4976408;28;20025;-67
2023/03/03 06:35:52;;;;;;;;;;;;;;;-1.96;76.96;101303.97;4976108;28;20342;-67
2023/03/03 06:38:56;;;;;;;;;;;;;;;-2.01;77.24;101310.75;4976557;28;19929;-67
2023/03/03 06:41:58;;;;;;;;;;;;;;;-1.91;76.69;101311.72;4976491;28;20057;-67
2023/03/03 06:45:01;;;;;;;;;;;;;;;-1.84;76.51;101325.47;4975949;28;19970;-67
2023/03/03 06:48:05;;;;;;;;;;;;;;;-1.80;76.84;101330.63;4976284;28;19925;-67
2023/03/03 06:51:17;;;;;;;;;;;;;;;-1.78;76.45;101321.28;4976263;28;19960;-67
2023/03/03 06:54:22;;;;;;;;;;;;;;;-1.76;77.07;101324.69;4976147;28;19943;-67
2023/03/03 06:57:31;;;;;;;;;;;;;;;-1.73;76.60;101334.97;4975998;28;20036;-67
2023/03/03 07:00:35;;;;;;;;;;;;;;;-1.75;76.48;101339.25;4975994;28;19925;-66
2023/03/03 07:03:38;;;;;;;;;;;;;;;-1.71;76.89;101363.22;4976060;28;20013;-67
2023/03/03 07:06:41;;;;;;;;;;;;;;;-1.64;77.01;101363.28;4975965;28;19926;-66
2023/03/03 07:09:45;;;;;;;;;;;;;;;-1.55;76.99;101371.94;4975704;28;19941;-66
2023/03/03 07:12:57;;;;;;;;;;;;;;;-1.58;77.07;101383.03;4975659;28;19929;-67
2023/03/03 07:16:10;;;;;;;;;;;;;;;-1.43;76.71;101377.22;4976001;28;19925;-66
2023/03/03 07:19:19;;;;;;;;;;;;;;;-1.36;77.00;101378.13;4976090;28;19973;-66
2023/03/03 07:22:26;;;;;;;;;;;;;;;-1.21;77.02;101386.00;4975709;28;19924;-67
2023/03/03 07:25:31;;;;;;;;;;;;;;;-1.20;76.50;101396.25;4975885;28;19970;-67
2023/03/03 07:28:34;;;;;;;;;;;;;;;-1.19;76.96;101391.97;4975581;28;20392;-67
2023/03/03 07:31:40;;;;;;;;;;;;;;;-1.13;76.46;101391.19;4975661;28;19928;-67
2023/03/03 07:34:46;;;;;;;;;;;;;;;-1.10;76.73;101393.78;4975472;28;19929;-67
2023/03/03 07:37:50;;;;;;;;;;;;;;;-0.99;76.65;101397.28;4975468;28;19968;-67
2023/03/03 07:40:56;;;;;;;;;;;;;;;-0.86;76.00;101394.00;4975500;28;19925;-67
2023/03/03 07:44:05;;;;;;;;;;;;;;;-0.91;76.11;101403.38;4952694;28;20385;-66
2023/03/03 07:47:12;;;;;;;;;;;;;;;-0.76;76.24;101405.22;4974650;28;19928;-66
2023/03/03 07:50:17;;;;;;;;;;;;;;;-0.64;76.59;101417.28;4974969;28;19959;-67
2023/03/03 07:53:25;;;;;;;;;;;;;;;-0.58;76.10;101419.91;4974986;28;20445;-66
2023/03/03 07:56:29;;;;;;;;;;;;;;;-0.57;76.52;101421.63;4975019;28;19926;-67
2023/03/03 07:59:34;;;;;;;;;;;;;;;-0.52;76.49;101417.38;4974868;28;20438;-67
2023/03/03 08:02:42;;;;;;;;;;;;;;;-0.47;76.12;101410.56;4975058;28;19924;-67
2023/03/03 08:05:47;;;;;;;;;;;;;;;-0.37;75.95;101411.50;4975185;28;19925;-66
2023/03/03 08:08:51;;;;;;;;;;;;;;;-0.30;76.06;101414.09;4974879;28;20444;-67
2023/03/03 08:11:57;;;;;;;;;;;;;;;-0.17;76.03;101416.75;4974749;28;19925;-67
2023/03/03 08:15:17;;;;;;;;;;;;;;;-0.13;75.76;101418.47;4962923;28;20016;-66
2023/03/03 08:18:22;;;;;;;;;;;;;;;-0.10;76.37;101410.78;4974941;28;19924;-67
2023/03/03 08:21:27;;;;;;;;;;;;;;;-0.01;75.88;101416.00;4974330;28;19973;-66
2023/03/03 08:24:31;;;;;;;;;;;;;;;0.07;75.89;101414.34;4973747;28;19965;-68
2023/03/03 08:27:34;;;;;;;;;;;;;;;0.20;75.54;101410.97;4974527;28;19925;-68
2023/03/03 08:30:37;;;;;;;;;;;;;;;0.20;76.49;101403.25;4974514;28;20484;-68
2023/03/03 08:33:40;;;;;;;;;;;;;;;0.53;76.65;101401.66;4974417;28;19929;-68
2023/03/03 08:36:43;;;;;;;;;;;;;;;0.58;76.60;101412.81;4974434;28;19953;-71
2023/03/03 08:39:48;;;;;;;;;;;;;;;0.61;76.59;101417.97;4973605;28;20225;-71
2023/03/03 08:42:53;;;;;;;;;;;;;;;0.33;78.89;101416.16;4974584;28;19925;-68
2023/03/03 08:45:58;;;;;;;;;;;;;;;0.57;78.24;101421.38;4974194;28;20088;-69
2023/03/03 08:49:01;;;;;;;;;;;;;;;0.83;77.60;101418.91;4974280;28;19924;-70
2023/03/03 08:52:04;;;;;;;;;;;;;;;0.91;80.41;101417.19;4974272;28;19925;-70
2023/03/03 08:55:08;;;;;;;;;;;;;;;1.20;78.76;101423.22;4974055;28;20365;-69
2023/03/03 08:58:12;;;;;;;;;;;;;;;1.34;78.95;101419.81;4974123;28;19924;-69
2023/03/03 09:01:17;;;;;;;;;;;;;;;1.43;78.59;101421.50;4974007;28;19929;-69
2023/03/03 09:04:20;;;;;;;;;;;;;;;1.46;78.23;101424.06;4974274;28;19973;-69
2023/03/03 09:07:24;;;;;;;;;;;;;;;1.07;78.66;101422.34;4973890;28;19925;-69
2023/03/03 09:10:29;;;;;;;;;;;;;;;1.27;78.84;101422.38;4973989;28;19987;-69
2023/03/03 09:13:33;;;;;;;;;;;;;;;1.50;77.68;101423.25;4973939;28;20112;-69
2023/03/03 09:16:39;;;;;;;;;;;;;;;1.82;76.54;101430.06;4962272;28;20006;-71
2023/03/03 09:19:42;;;;;;;;;;;;;;;1.68;77.25;101431.81;4961905;28;19925;-69
2023/03/03 09:22:46;;;;;;;;;;;;;;;2.03;76.23;101435.16;4973757;28;19968;-70
2023/03/03 09:25:52;;;;;;;;;;;;;;;1.85;77.29;101441.25;4974063;28;20413;-69
2023/03/03 09:29:14;;;;;;;;;;;;;;;1.83;76.46;101440.38;4973853;28;19972;-70
2023/03/03 09:32:41;;;;;;;;;;;;;;;1.89;76.52;101446.41;4973775;28;19925;-70
2023/03/03 09:35:45;;;;;;;;;;;;;;;2.04;76.01;101436.91;4974019;28;19981;-69
2023/03/03 09:38:49;;;;;;;;;;;;;;;2.33;75.82;101441.13;4973792;28;20401;-69
2023/03/03 09:41:52;;;;;;;;;;;;;;;2.48;74.84;101433.28;4973677;28;20074;-68
2023/03/03 09:45:04;;;;;;;;;;;;;;;2.46;73.94;101429.88;4972987;28;19933;-68
2023/03/03 09:48:15;;;;;;;;;;;;;;;2.33;73.10;101436.81;4961847;28;19965;-69
2023/03/03 09:51:44;;;;;;;;;;;;;;;2.24;73.89;101446.31;4974087;28;20438;-69
2023/03/03 09:55:00;;;;;;;;;;;;;;;2.25;75.00;101440.28;4974187;28;20020;-69
2023/03/03 09:58:15;;;;;;;;;;;;;;;2.56;74.53;101435.84;4973513;28;19973;-68
2023/03/03 10:01:37;;;;;;;;;;;;;;;2.55;74.08;101429.84;4973477;28;19925;-68
2023/03/03 10:04:40;;;;;;;;;;;;;;;2.61;73.44;101433.25;4973563;28;20400;-69
2023/03/03 10:07:53;;;;;;;;;;;;;;;2.76;72.99;101417.66;4973350;28;19941;-68
2023/03/03 10:11:00;;;;;;;;;;;;;;;2.71;72.12;101425.47;4976881;28;19940;-68
2023/03/03 10:14:16;;;;;;;;;;;;;;;2.79;71.67;101427.97;4976451;28;19929;-69
2023/03/03 10:17:21;;;;;;;;;;;;;;;2.60;72.13;101441.84;4977181;28;19925;-69
2023/03/03 10:20:33;;;;;;;;;;;;;;;2.70;72.40;101448.69;4977282;28;19973;-68
2023/03/03 10:23:45;;;;;;;;;;;;;;;3.08;72.13;101452.78;4965186;28;19925;-69
2023/03/03 10:26:53;;;;;;;;;;;;;;;2.96;72.01;101457.16;4976913;28;20067;-69
2023/03/03 10:30:10;;;;;;;;;;;;;;;2.70;72.55;101459.03;4964776;28;19925;-69
2023/03/03 10:33:26;;;;;;;;;;;;;;;2.90;72.51;101466.66;4976938;28;20046;-69
2023/03/03 10:36:36;;;;;;;;;;;;;;;3.03;72.98;101456.25;4976552;28;19925;-68
2023/03/03 10:39:58;;;;;;;;;;;;;;;2.82;72.24;101464.13;4974989;28;19925;-67
2023/03/03 10:43:14;;;;;;;;;;;;;;;3.03;72.20;101463.13;4964045;28;19925;-68
2023/03/03 10:46:29;;;;;;;;;;;;;;;3.21;72.68;101462.16;4975626;28;20053;-67
2023/03/03 10:49:51;;;;;;;;;;;;;;;3.20;71.50;101455.28;4976458;28;19941;-68
2023/03/03 10:53:07;;;;;;;;;;;;;;;3.25;71.84;101454.41;4976024;28;19929;-69
2023/03/03 10:56:27;;;;;;;;;;;;;;;3.12;71.34;101451.88;4976636;28;19924;-68
2023/03/03 10:59:51;;;;;;;;;;;;;;;3.34;71.81;101458.63;4976623;28;19972;-68
2023/03/03 11:03:00;;;;;;;;;;;;;;;3.50;71.50;101455.03;4976007;28;19925;-68
2023/03/03 11:06:05;;;;;;;;;;;;;;;3.67;70.91;101454.03;4976173;28;19925;-66
2023/03/03 11:09:27;;;;;;;;;;;;;;;3.71;70.26;101447.97;4975999;28;19925;-70
2023/03/03 11:12:33;;;;;;;;;;;;;;;3.84;70.04;101447.00;4975901;28;20400;-67
2023/03/03 11:15:42;;;;;;;;;;;;;;;3.95;69.74;101442.53;4976065;28;19968;-67
2023/03/03 11:18:45;;;;;;;;;;;;;;;4.09;70.20;101438.97;4975807;28;19925;-67
2023/03/03 11:22:07;;;;;;;;;;;;;;;4.24;70.14;101432.75;4974606;28;19929;-67
2023/03/03 11:25:13;;;;;;;;;;;;;;;4.39;69.45;101438.59;4975774;28;19969;-67
2023/03/03 11:28:16;;;;;;;;;;;;;;;4.42;68.44;101432.53;4975847;28;19925;-67
2023/03/03 11:31:29;;;;;;;;;;;;;;;4.56;67.72;101432.38;4975651;28;19925;-67
2023/03/03 11:34:55;;;;;;;;;;;;;;;4.45;68.05;101423.88;4975643;28;19977;-65
2023/03/03 11:38:14;;;;;;;;;;;;;;;4.63;67.70;101415.88;4975350;28;19925;-67
2023/03/03 11:41:35;;;;;;;;;;;;;;;4.74;67.30;101419.16;4975520;28;19974;-68
2023/03/03 11:45:08;;;;;;;;;;;;;;;4.87;66.98;101407.75;4975180;28;20440;-67
2023/03/03 11:48:17;;;;;;;;;;;;;;;4.98;66.40;101398.94;4975375;28;19973;-67
2023/03/03 11:51:41;;;;;;;;;;;;;;;5.11;66.82;101392.72;4975080;28;19925;-68
2023/03/03 11:54:51;;;;;;;;;;;;;;;5.08;66.31;101398.81;4975431;28;19929;-68
2023/03/03 11:58:13;;;;;;;;;;;;;;;4.99;65.15;101392.91;4975163;28;19925;-68
2023/03/03 12:01:20;;;;;;;;;;;;;;;4.77;65.45;101385.44;4975122;28;19925;-68
2023/03/03 12:04:35;;;;;;;;;;;;;;;5.07;65.14;101376.38;4975511;28;19994;-67
2023/03/03 12:07:47;;;;;;;;;;;;;;;5.38;65.22;101375.00;4975051;28;19925;-68
2023/03/03 12:10:56;;;;;;;;;;;;;;;5.53;64.54;101365.19;4974982;28;19929;-68
2023/03/03 12:14:11;;;;;;;;;;;;;;;5.70;63.38;101366.63;4962873;28;19977;-68
2023/03/03 12:17:33;;;;;;;;;;;;;;;5.89;63.82;101361.94;4975004;28;19941;-69
2023/03/03 12:20:49;;;;;;;;;;;;;;;5.97;63.27;101360.09;4974875;28;19966;-68
2023/03/03 12:24:01;;;;;;;;;;;;;;;6.13;61.84;101347.66;4974645;28;19929;-68
2023/03/03 12:27:21;;;;;;;;;;;;;;;6.25;60.87;101347.38;4974690;28;20009;-68
2023/03/03 12:30:34;;;;;;;;;;;;;;;6.38;60.68;101337.59;4974618;28;19926;-68
2023/03/03 12:33:56;;;;;;;;;;;;;;;6.43;60.28;101338.34;4974121;28;19977;-68
2023/03/03 12:37:05;;;;;;;;;;;;;;;6.59;59.36;101334.50;4974637;28;19938;-68
2023/03/03 12:40:12;;;;;;;;;;;;;;;6.66;60.08;101317.88;4974442;28;20400;-69
2023/03/03 12:43:29;;;;;;;;;;;;;;;6.78;58.67;101319.34;4974384;28;20017;-68
2023/03/03 12:46:32;;;;;;;;;;;;;;;6.69;58.63;101309.16;4974278;28;19972;-69
2023/03/03 12:49:43;;;;;;;;;;;;;;;6.24;59.91;101304.97;4974592;28;19925;-69
2023/03/03 12:52:52;;;;;;;;;;;;;;;6.22;59.86;101309.38;4973968;28;20013;-69
2023/03/03 12:56:03;;;;;;;;;;;;;;;6.57;59.51;101296.47;4973577;28;20005;-69
2023/03/03 12:59:16;;;;;;;;;;;;;;;6.66;58.73;101294.50;4973148;28;19988;-72
2023/03/03 13:02:28;;;;;;;;;;;;;;;6.72;58.16;101293.50;4972402;28;19993;-71
2023/03/03 13:05:49;;;;;;;;;;;;;;;7.01;57.49;101295.38;4972717;28;19924;-70
2023/03/03 13:08:59;;;;;;;;;;;;;;;6.89;57.36;101295.69;4972964;28;20278;-70
2023/03/03 13:12:01;;;;;;;;;;;;;;;7.45;56.21;101290.78;4974114;28;19926;-67
2023/03/03 13:18:45;;;;;;;;;;;;;;;8.68;51.96;101292.38;4973815;28;19929;-68
2023/03/03 13:21:55;;;;;;;;;;;;;;;9.79;48.91;101282.44;4974017;28;19924;-67
2023/03/03 13:25:18;;;;;;;;;;;;;;;11.02;45.67;101281.13;4973983;28;20057;-68
2023/03/03 13:28:23;;;;;;;;;;;;;;;11.53;44.17;101282.41;4962255;28;19965;-68
2023/03/03 13:31:31;;;;;;;;;;;;;;;13.57;41.98;101274.38;4973911;28;20397;-69
2023/03/03 13:35:03;;;;;;;;;;;;;;;12.78;42.49;101270.47;4973914;28;19929;-70
2023/03/03 13:38:18;;;;;;;;;;;;;;;13.01;40.95;101273.72;4967466;28;20024;-71
2023/03/03 13:41:30;;;;;;;;;;;;;;;10.38;47.38;101274.13;4961933;28;19925;-69
2023/03/03 13:44:38;;;;;;;;;;;;;;;11.20;45.88;101278.63;4974949;28;20013;-69
2023/03/03 13:48:11;;;;;;;;;;;;;;;10.37;47.91;101272.44;4977803;28;19925;-72
2023/03/03 13:51:41;;;;;;;;;;;;;;;9.36;50.14;101281.41;4939090;29;20000;-70
2023/03/03 13:54:57;;;;;;;;;;;;;;;8.34;52.21;101283.00;4926862;29;19981;-70
2023/03/03 13:58:16;;;;;;;;;;;;;;;8.27;53.21;101273.66;4936788;29;19978;-71
2023/03/03 14:01:30;;;;;;;;;;;;;;;8.75;57.10;101278.25;4936332;29;20394;-77
2023/03/03 14:04:41;;;;;;;;;;;;;;;9.17;55.74;101265.53;4931552;29;19926;-77
2023/03/03 14:07:50;;;;;;;;;;;;;;;9.39;52.81;101264.78;4934161;29;19934;-77
2023/03/03 14:10:53;;;;;;;;;;;;;;;9.40;53.71;101261.25;4936125;29;19973;-75
2023/03/03 14:14:17;;;;;;;;;;;;;;;8.82;53.34;101264.13;4936203;29;19934;-76
2023/03/03 14:17:20;;;;;;;;;;;;;;;8.92;53.48;101254.22;4936376;29;19954;-72
2023/03/03 14:20:27;;;;;;;;;;;;;;;9.12;52.37;101258.75;4936555;29;19929;-72
2023/03/03 14:23:31;;;;;;;;;;;;;;;9.18;52.15;101255.94;4936048;29;19974;-71
2023/03/03 14:27:04;;;;;;;;;;;;;;;8.65;52.99;101261.19;4931148;29;20007;-71
2023/03/03 14:30:26;;;;;;;;;;;;;;;8.50;53.13;101252.13;4924098;29;19930;-72
2023/03/03 14:33:31;;;;;;;;;;;;;;;9.26;52.33;101256.53;4935758;29;19999;-71
2023/03/03 14:36:40;;;;;;;;;;;;;;;8.82;52.73;101253.69;4935496;29;19950;-70
2023/03/03 14:39:52;;;;;;;;;;;;;;;9.03;52.49;101252.97;4936848;29;20405;-74
2023/03/03 14:42:59;;;;;;;;;;;;;;;8.36;53.73;101249.94;4935559;29;20391;-72
2023/03/03 14:46:21;;;;;;;;;;;;;;;9.42;51.79;101255.09;4923622;29;19932;-70
2023/03/03 14:49:31;;;;;;;;;;;;;;;9.19;51.42;101249.81;4935127;29;20114;-70
2023/03/03 14:52:40;;;;;;;;;;;;;;;9.48;51.24;101251.41;4935458;29;20351;-69
2023/03/03 14:55:46;;;;;;;;;;;;;;;9.46;52.19;101248.84;4935700;29;20010;-69
2023/03/03 14:59:13;;;;;;;;;;;;;;;9.95;51.37;101243.53;4932461;29;19934;-70
2023/03/03 15:02:20;;;;;;;;;;;;;;;10.07;50.71;101242.22;4932282;29;19930;-71
2023/03/03 15:05:25;;;;;;;;;;;;;;;9.76;49.66;101240.78;4929502;29;20252;-70
2023/03/03 15:08:33;;;;;;;;;;;;;;;9.29;51.45;101238.16;4931738;29;20298;-71
2023/03/03 15:11:36;;;;;;;;;;;;;;;9.94;51.17;101237.47;4930787;29;19929;-70
2023/03/03 15:14:43;;;;;;;;;;;;;;;10.18;48.79;101229.63;4930064;29;19986;-70
2023/03/03 15:18:03;;;;;;;;;;;;;;;11.84;46.21;101226.91;4928899;29;19929;-71
2023/03/03 15:21:09;;;;;;;;;;;;;;;13.33;42.45;101218.72;4927646;29;19953;-68
2023/03/03 15:24:19;;;;;;;;;;;;;;;11.07;45.81;101221.59;4928922;29;20358;-70
2023/03/03 15:27:34;;;;;;;;;;;;;;;9.51;49.62;101226.03;4937148;28;19925;-69
2023/03/03 15:30:45;;;;;;;;;;;;;;;9.02;51.52;101227.75;4940849;28;19929;-69
2023/03/03 15:34:06;;;;;;;;;;;;;;;8.67;53.63;101225.50;4953546;28;19945;-71
2023/03/03 15:37:18;;;;;;;;;;;;;;;7.54;55.30;101233.28;4953451;29;19940;-72
2023/03/03 15:40:28;;;;;;;;;;;;;;;7.23;56.65;101228.06;4953139;29;20338;-72
2023/03/03 15:43:39;;;;;;;;;;;;;;;7.71;55.92;101229.34;4953121;29;19926;-70
2023/03/03 15:46:51;;;;;;;;;;;;;;;7.40;56.62;101235.41;4959154;28;20005;-71
2023/03/03 15:50:09;;;;;;;;;;;;;;;7.49;56.37;101229.94;4970290;28;19968;-72
2023/03/03 15:53:29;;;;;;;;;;;;;;;7.11;57.82;101233.59;4959360;28;19929;-71
2023/03/03 15:56:40;;;;;;;;;;;;;;;7.21;58.01;101238.53;4970934;28;20437;-70
2023/03/03 15:59:45;;;;;;;;;;;;;;;6.92;59.11;101243.59;4959551;28;20476;-70
2023/03/03 16:02:48;;;;;;;;;;;;;;;7.33;59.63;101241.66;4971171;28;19968;-73
2023/03/03 16:05:54;;;;;;;;;;;;;;;7.40;59.48;101251.00;4971201;28;20365;-72
2023/03/03 16:08:57;;;;;;;;;;;;;;;7.23;57.79;101249.72;4970934;28;19929;-70
2023/03/03 16:12:16;;;;;;;;;;;;;;;6.74;59.12;101253.59;4969888;28;19946;-70
2023/03/03 16:15:25;;;;;;;;;;;;;;;6.73;58.54;101253.63;4971009;28;19933;-70